Weather at Hato International Airport

Public forecast

Using degrees Celsius for public forecast. Weather courtesy of forecast.io.

Current aviation weather report (METAR) for Hato International Airport

Retrieved 2021/10/15 23:00 UTC (13 minutes ago):

TNCC 152300Z 06013KT 9999 FEW019 29/26 Q1008 NOSIG

Aviation forecast (TAF) for Hato International Airport

Retrieved 2021/10/15 18:00 UTC (5 hours ago):

TAF TNCC 151715Z 1518/1618 09010KT 9999 SCT020 PROB30 TEMPO 1606/1616 BKN014